sensor_id;sensor_type;location;lat;lon;timestamp;P1;durP1;ratioP1;P2;durP2;ratioP2
69621;SDS011;56841;55.964;37.674;2023-06-01T00:02:05;13.82;;;4.38;;
69621;SDS011;56841;55.964;37.674;2023-06-01T00:04:31;9.10;;;3.63;;
69621;SDS011;56841;55.964;37.674;2023-06-01T00:06:57;10.20;;;4.00;;
69621;SDS011;56841;55.964;37.674;2023-06-01T00:09:26;11.77;;;4.45;;
69621;SDS011;56841;55.964;37.674;2023-06-01T00:11:52;14.07;;;5.25;;
69621;SDS011;56841;55.964;37.674;2023-06-01T00:14:18;11.20;;;4.95;;
69621;SDS011;56841;55.964;37.674;2023-06-01T00:16:44;11.68;;;5.35;;
69621;SDS011;56841;55.964;37.674;2023-06-01T00:19:10;9.90;;;4.82;;
69621;SDS011;56841;55.964;37.674;2023-06-01T00:21:36;12.27;;;5.90;;
69621;SDS011;56841;55.964;37.674;2023-06-01T00:24:02;15.40;;;5.85;;
69621;SDS011;56841;55.964;37.674;2023-06-01T00:26:28;13.90;;;5.30;;
69621;SDS011;56841;55.964;37.674;2023-06-01T00:28:58;11.65;;;5.45;;
69621;SDS011;56841;55.964;37.674;2023-06-01T00:31:24;14.48;;;6.10;;
69621;SDS011;56841;55.964;37.674;2023-06-01T00:33:50;13.77;;;5.93;;
69621;SDS011;56841;55.964;37.674;2023-06-01T00:36:18;13.48;;;5.00;;
69621;SDS011;56841;55.964;37.674;2023-06-01T00:38:43;12.85;;;5.32;;
69621;SDS011;56841;55.964;37.674;2023-06-01T00:41:10;13.48;;;5.78;;
69621;SDS011;56841;55.964;37.674;2023-06-01T00:43:35;13.35;;;5.95;;
69621;SDS011;56841;55.964;37.674;2023-06-01T00:46:01;12.20;;;5.60;;
69621;SDS011;56841;55.964;37.674;2023-06-01T00:48:27;10.55;;;4.43;;
69621;SDS011;56841;55.964;37.674;2023-06-01T00:50:53;14.57;;;5.85;;
69621;SDS011;56841;55.964;37.674;2023-06-01T00:53:19;13.13;;;5.32;;
69621;SDS011;56841;55.964;37.674;2023-06-01T00:55:46;13.50;;;5.43;;
69621;SDS011;56841;55.964;37.674;2023-06-01T00:58:13;12.98;;;5.40;;
69621;SDS011;56841;55.964;37.674;2023-06-01T01:00:39;12.27;;;5.57;;
69621;SDS011;56841;55.964;37.674;2023-06-01T01:03:05;11.57;;;5.43;;
69621;SDS011;56841;55.964;37.674;2023-06-01T01:05:35;12.65;;;5.55;;
69621;SDS011;56841;55.964;37.674;2023-06-01T01:11:11;12.13;;;5.20;;
69621;SDS011;56841;55.964;37.674;2023-06-01T01:13:45;12.07;;;5.13;;
69621;SDS011;56841;55.964;37.674;2023-06-01T01:16:25;11.05;;;5.45;;
69621;SDS011;56841;55.964;37.674;2023-06-01T01:21:34;11.80;;;5.57;;
69621;SDS011;56841;55.964;37.674;2023-06-01T01:29:16;13.18;;;5.85;;
69621;SDS011;56841;55.964;37.674;2023-06-01T01:31:45;11.02;;;4.70;;
69621;SDS011;56841;55.964;37.674;2023-06-01T01:34:14;10.15;;;4.88;;
69621;SDS011;56841;55.964;37.674;2023-06-01T01:36:43;10.88;;;4.95;;
69621;SDS011;56841;55.964;37.674;2023-06-01T01:39:09;9.20;;;4.45;;
69621;SDS011;56841;55.964;37.674;2023-06-01T01:41:34;11.23;;;4.25;;
69621;SDS011;56841;55.964;37.674;2023-06-01T01:44:00;7.95;;;3.88;;
69621;SDS011;56841;55.964;37.674;2023-06-01T01:46:28;12.65;;;4.88;;
69621;SDS011;56841;55.964;37.674;2023-06-01T01:52:05;9.15;;;4.47;;
69621;SDS011;56841;55.964;37.674;2023-06-01T01:54:37;9.85;;;4.40;;
69621;SDS011;56841;55.964;37.674;2023-06-01T01:57:07;11.13;;;4.70;;
69621;SDS011;56841;55.964;37.674;2023-06-01T01:59:36;12.32;;;5.03;;
69621;SDS011;56841;55.964;37.674;2023-06-01T02:02:03;15.35;;;4.18;;
69621;SDS011;56841;55.964;37.674;2023-06-01T02:04:29;8.48;;;3.83;;
69621;SDS011;56841;55.964;37.674;2023-06-01T02:06:57;8.02;;;3.83;;
69621;SDS011;56841;55.964;37.674;2023-06-01T02:09:23;9.60;;;4.53;;
69621;SDS011;56841;55.964;37.674;2023-06-01T02:11:48;10.35;;;3.65;;
69621;SDS011;56841;55.964;37.674;2023-06-01T02:14:14;10.27;;;3.65;;
69621;SDS011;56841;55.964;37.674;2023-06-01T02:16:40;11.07;;;3.88;;
69621;SDS011;56841;55.964;37.674;2023-06-01T02:19:06;6.80;;;3.13;;
69621;SDS011;56841;55.964;37.674;2023-06-01T02:21:36;8.60;;;3.28;;
69621;SDS011;56841;55.964;37.674;2023-06-01T02:24:01;9.07;;;4.03;;
69621;SDS011;56841;55.964;37.674;2023-06-01T02:26:30;11.65;;;3.45;;
69621;SDS011;56841;55.964;37.674;2023-06-01T02:28:56;4.90;;;2.15;;
69621;SDS011;56841;55.964;37.674;2023-06-01T02:31:22;12.68;;;3.30;;
69621;SDS011;56841;55.964;37.674;2023-06-01T02:33:48;12.10;;;3.65;;
69621;SDS011;56841;55.964;37.674;2023-06-01T02:36:14;9.07;;;2.97;;
69621;SDS011;56841;55.964;37.674;2023-06-01T02:38:42;11.15;;;3.03;;
69621;SDS011;56841;55.964;37.674;2023-06-01T02:41:08;9.00;;;2.65;;
69621;SDS011;56841;55.964;37.674;2023-06-01T02:43:34;8.48;;;2.97;;
69621;SDS011;56841;55.964;37.674;2023-06-01T02:46:03;12.93;;;4.15;;
69621;SDS011;56841;55.964;37.674;2023-06-01T02:48:29;8.52;;;3.50;;
69621;SDS011;56841;55.964;37.674;2023-06-01T02:50:56;8.68;;;3.15;;
69621;SDS011;56841;55.964;37.674;2023-06-01T02:53:21;10.27;;;4.50;;
69621;SDS011;56841;55.964;37.674;2023-06-01T02:55:47;10.43;;;3.55;;
69621;SDS011;56841;55.964;37.674;2023-06-01T02:58:45;7.68;;;4.10;;
69621;SDS011;56841;55.964;37.674;2023-06-01T03:01:23;8.10;;;3.85;;
69621;SDS011;56841;55.964;37.674;2023-06-01T03:03:48;10.57;;;4.18;;
69621;SDS011;56841;55.964;37.674;2023-06-01T03:06:17;8.30;;;3.67;;
69621;SDS011;56841;55.964;37.674;2023-06-01T03:09:10;7.03;;;2.95;;
69621;SDS011;56841;55.964;37.674;2023-06-01T03:11:54;10.35;;;3.83;;
69621;SDS011;56841;55.964;37.674;2023-06-01T03:14:20;8.45;;;3.15;;
69621;SDS011;56841;55.964;37.674;2023-06-01T03:16:46;8.65;;;3.40;;
69621;SDS011;56841;55.964;37.674;2023-06-01T03:19:17;8.15;;;3.60;;
69621;SDS011;56841;55.964;37.674;2023-06-01T03:21:45;7.63;;;3.58;;
69621;SDS011;56841;55.964;37.674;2023-06-01T03:24:15;13.00;;;3.90;;
69621;SDS011;56841;55.964;37.674;2023-06-01T03:26:43;11.32;;;3.50;;
69621;SDS011;56841;55.964;37.674;2023-06-01T03:29:08;7.70;;;3.53;;
69621;SDS011;56841;55.964;37.674;2023-06-01T03:31:35;6.97;;;3.63;;
69621;SDS011;56841;55.964;37.674;2023-06-01T03:34:01;7.57;;;3.20;;
69621;SDS011;56841;55.964;37.674;2023-06-01T03:36:27;8.10;;;2.95;;
69621;SDS011;56841;55.964;37.674;2023-06-01T03:38:53;6.60;;;2.75;;
69621;SDS011;56841;55.964;37.674;2023-06-01T03:41:21;7.20;;;2.90;;
69621;SDS011;56841;55.964;37.674;2023-06-01T03:43:47;4.75;;;2.45;;
69621;SDS011;56841;55.964;37.674;2023-06-01T03:46:13;7.40;;;2.67;;
69621;SDS011;56841;55.964;37.674;2023-06-01T03:48:39;4.93;;;2.20;;
69621;SDS011;56841;55.964;37.674;2023-06-01T03:51:05;6.75;;;3.00;;
69621;SDS011;56841;55.964;37.674;2023-06-01T03:53:31;6.75;;;3.08;;
69621;SDS011;56841;55.964;37.674;2023-06-01T03:55:57;8.85;;;2.80;;
69621;SDS011;56841;55.964;37.674;2023-06-01T03:58:30;6.65;;;2.47;;
69621;SDS011;56841;55.964;37.674;2023-06-01T04:00:57;5.15;;;1.98;;
69621;SDS011;56841;55.964;37.674;2023-06-01T04:03:22;6.30;;;2.40;;
69621;SDS011;56841;55.964;37.674;2023-06-01T04:05:49;4.82;;;2.30;;
69621;SDS011;56841;55.964;37.674;2023-06-01T04:08:15;4.93;;;2.20;;
69621;SDS011;56841;55.964;37.674;2023-06-01T04:10:42;5.30;;;2.13;;
69621;SDS011;56841;55.964;37.674;2023-06-01T04:13:09;3.00;;;1.20;;
69621;SDS011;56841;55.964;37.674;2023-06-01T04:15:34;6.68;;;2.35;;
69621;SDS011;56841;55.964;37.674;2023-06-01T04:18:02;4.85;;;2.00;;
69621;SDS011;56841;55.964;37.674;2023-06-01T04:20:39;5.85;;;1.80;;
69621;SDS011;56841;55.964;37.674;2023-06-01T04:23:05;6.18;;;2.20;;
69621;SDS011;56841;55.964;37.674;2023-06-01T04:25:31;5.03;;;2.20;;
69621;SDS011;56841;55.964;37.674;2023-06-01T04:27:57;5.38;;;1.77;;
69621;SDS011;56841;55.964;37.674;2023-06-01T04:30:26;5.22;;;2.10;;
69621;SDS011;56841;55.964;37.674;2023-06-01T04:32:52;4.90;;;1.75;;
69621;SDS011;56841;55.964;37.674;2023-06-01T04:35:20;4.80;;;1.80;;
69621;SDS011;56841;55.964;37.674;2023-06-01T04:37:46;3.47;;;1.50;;
69621;SDS011;56841;55.964;37.674;2023-06-01T04:40:12;4.15;;;1.60;;
69621;SDS011;56841;55.964;37.674;2023-06-01T04:42:40;4.07;;;1.63;;
69621;SDS011;56841;55.964;37.674;2023-06-01T04:45:10;3.95;;;1.67;;
69621;SDS011;56841;55.964;37.674;2023-06-01T04:47:38;6.10;;;1.70;;
69621;SDS011;56841;55.964;37.674;2023-06-01T04:50:08;5.63;;;1.98;;
69621;SDS011;56841;55.964;37.674;2023-06-01T04:52:36;7.68;;;1.80;;
69621;SDS011;56841;55.964;37.674;2023-06-01T04:55:03;4.53;;;1.58;;
69621;SDS011;56841;55.964;37.674;2023-06-01T04:57:30;3.97;;;1.73;;
69621;SDS011;56841;55.964;37.674;2023-06-01T04:59:57;5.68;;;1.55;;
69621;SDS011;56841;55.964;37.674;2023-06-01T05:02:24;5.55;;;1.48;;
69621;SDS011;56841;55.964;37.674;2023-06-01T05:04:51;6.57;;;2.08;;
69621;SDS011;56841;55.964;37.674;2023-06-01T05:07:18;7.63;;;2.03;;
69621;SDS011;56841;55.964;37.674;2023-06-01T05:09:43;6.32;;;1.70;;
69621;SDS011;56841;55.964;37.674;2023-06-01T05:12:12;6.78;;;1.60;;
69621;SDS011;56841;55.964;37.674;2023-06-01T05:14:38;5.40;;;1.85;;
69621;SDS011;56841;55.964;37.674;2023-06-01T05:17:04;7.53;;;2.00;;
69621;SDS011;56841;55.964;37.674;2023-06-01T05:19:30;4.72;;;1.50;;
69621;SDS011;56841;55.964;37.674;2023-06-01T05:21:59;6.10;;;2.00;;
69621;SDS011;56841;55.964;37.674;2023-06-01T05:24:25;4.40;;;1.88;;
69621;SDS011;56841;55.964;37.674;2023-06-01T05:26:54;4.72;;;1.73;;
69621;SDS011;56841;55.964;37.674;2023-06-01T05:29:20;4.07;;;1.73;;
69621;SDS011;56841;55.964;37.674;2023-06-01T05:31:46;9.07;;;2.22;;
69621;SDS011;56841;55.964;37.674;2023-06-01T05:34:12;5.25;;;1.80;;
69621;SDS011;56841;55.964;37.674;2023-06-01T05:36:38;8.00;;;2.05;;
69621;SDS011;56841;55.964;37.674;2023-06-01T05:39:05;6.38;;;1.60;;
69621;SDS011;56841;55.964;37.674;2023-06-01T05:41:31;3.90;;;1.63;;
69621;SDS011;56841;55.964;37.674;2023-06-01T05:43:57;4.05;;;1.73;;
69621;SDS011;56841;55.964;37.674;2023-06-01T05:46:23;5.70;;;2.20;;
69621;SDS011;56841;55.964;37.674;2023-06-01T05:48:50;8.32;;;1.60;;
69621;SDS011;56841;55.964;37.674;2023-06-01T05:51:17;8.40;;;1.52;;
69621;SDS011;56841;55.964;37.674;2023-06-01T05:53:43;4.63;;;1.70;;
69621;SDS011;56841;55.964;37.674;2023-06-01T05:56:10;6.65;;;2.13;;
69621;SDS011;56841;55.964;37.674;2023-06-01T05:58:35;5.13;;;1.60;;
69621;SDS011;56841;55.964;37.674;2023-06-01T06:01:01;4.30;;;1.70;;
69621;SDS011;56841;55.964;37.674;2023-06-01T06:03:27;5.70;;;2.00;;
69621;SDS011;56841;55.964;37.674;2023-06-01T06:05:54;4.47;;;1.95;;
69621;SDS011;56841;55.964;37.674;2023-06-01T06:08:20;4.70;;;1.60;;
69621;SDS011;56841;55.964;37.674;2023-06-01T06:10:45;4.20;;;1.90;;
69621;SDS011;56841;55.964;37.674;2023-06-01T06:13:11;6.07;;;2.00;;
69621;SDS011;56841;55.964;37.674;2023-06-01T06:15:39;5.70;;;1.70;;
69621;SDS011;56841;55.964;37.674;2023-06-01T06:18:05;13.45;;;2.15;;
69621;SDS011;56841;55.964;37.674;2023-06-01T06:20:31;4.10;;;1.33;;
69621;SDS011;56841;55.964;37.674;2023-06-01T06:22:56;6.88;;;1.40;;
69621;SDS011;56841;55.964;37.674;2023-06-01T06:25:22;5.63;;;1.80;;
69621;SDS011;56841;55.964;37.674;2023-06-01T06:27:51;2.97;;;1.40;;
69621;SDS011;56841;55.964;37.674;2023-06-01T06:30:17;5.07;;;1.60;;
69621;SDS011;56841;55.964;37.674;2023-06-01T06:32:43;6.68;;;1.50;;
69621;SDS011;56841;55.964;37.674;2023-06-01T06:35:10;4.18;;;1.27;;
69621;SDS011;56841;55.964;37.674;2023-06-01T06:37:39;2.80;;;1.27;;
69621;SDS011;56841;55.964;37.674;2023-06-01T06:40:07;3.40;;;1.48;;
69621;SDS011;56841;55.964;37.674;2023-06-01T06:42:33;5.28;;;1.38;;
69621;SDS011;56841;55.964;37.674;2023-06-01T06:44:59;6.43;;;1.67;;
69621;SDS011;56841;55.964;37.674;2023-06-01T06:47:25;3.10;;;1.30;;
69621;SDS011;56841;55.964;37.674;2023-06-01T06:49:52;3.90;;;1.27;;
69621;SDS011;56841;55.964;37.674;2023-06-01T06:52:18;5.55;;;1.40;;
69621;SDS011;56841;55.964;37.674;2023-06-01T06:54:43;5.85;;;1.77;;
69621;SDS011;56841;55.964;37.674;2023-06-01T06:57:09;3.25;;;1.73;;
69621;SDS011;56841;55.964;37.674;2023-06-01T06:59:36;4.50;;;1.33;;
69621;SDS011;56841;55.964;37.674;2023-06-01T07:02:02;5.40;;;2.10;;
69621;SDS011;56841;55.964;37.674;2023-06-01T07:04:29;5.93;;;1.75;;
69621;SDS011;56841;55.964;37.674;2023-06-01T07:06:55;3.25;;;1.40;;
69621;SDS011;56841;55.964;37.674;2023-06-01T07:09:21;4.18;;;1.60;;
69621;SDS011;56841;55.964;37.674;2023-06-01T07:11:47;6.50;;;2.10;;
69621;SDS011;56841;55.964;37.674;2023-06-01T07:14:15;4.88;;;1.92;;
69621;SDS011;56841;55.964;37.674;2023-06-01T07:16:41;5.40;;;1.88;;
69621;SDS011;56841;55.964;37.674;2023-06-01T07:19:07;6.88;;;1.50;;
69621;SDS011;56841;55.964;37.674;2023-06-01T07:21:33;7.70;;;1.63;;
69621;SDS011;56841;55.964;37.674;2023-06-01T07:23:59;4.07;;;1.20;;
69621;SDS011;56841;55.964;37.674;2023-06-01T07:26:25;3.50;;;1.42;;
69621;SDS011;56841;55.964;37.674;2023-06-01T07:28:52;3.90;;;1.35;;
69621;SDS011;56841;55.964;37.674;2023-06-01T07:31:20;3.30;;;1.30;;
69621;SDS011;56841;55.964;37.674;2023-06-01T07:33:46;4.43;;;1.60;;
69621;SDS011;56841;55.964;37.674;2023-06-01T07:36:12;2.70;;;1.30;;
69621;SDS011;56841;55.964;37.674;2023-06-01T07:38:40;5.85;;;1.40;;
69621;SDS011;56841;55.964;37.674;2023-06-01T07:41:08;7.63;;;1.48;;
69621;SDS011;56841;55.964;37.674;2023-06-01T07:43:35;3.03;;;1.30;;
69621;SDS011;56841;55.964;37.674;2023-06-01T07:46:02;5.10;;;1.45;;
69621;SDS011;56841;55.964;37.674;2023-06-01T07:48:28;4.15;;;1.20;;
69621;SDS011;56841;55.964;37.674;2023-06-01T07:50:53;8.35;;;1.35;;
69621;SDS011;56841;55.964;37.674;2023-06-01T07:53:20;4.88;;;1.15;;
69621;SDS011;56841;55.964;37.674;2023-06-01T07:55:46;4.43;;;1.50;;
69621;SDS011;56841;55.964;37.674;2023-06-01T07:58:14;4.20;;;1.30;;
69621;SDS011;56841;55.964;37.674;2023-06-01T08:00:40;4.25;;;1.23;;
69621;SDS011;56841;55.964;37.674;2023-06-01T08:03:05;4.45;;;1.15;;
69621;SDS011;56841;55.964;37.674;2023-06-01T08:05:36;6.07;;;1.30;;
69621;SDS011;56841;55.964;37.674;2023-06-01T08:08:02;6.80;;;1.70;;
69621;SDS011;56841;55.964;37.674;2023-06-01T08:10:28;4.85;;;1.63;;
69621;SDS011;56841;55.964;37.674;2023-06-01T08:12:54;4.97;;;1.30;;
69621;SDS011;56841;55.964;37.674;2023-06-01T08:15:22;2.42;;;1.35;;
69621;SDS011;56841;55.964;37.674;2023-06-01T08:17:54;4.82;;;1.40;;
69621;SDS011;56841;55.964;37.674;2023-06-01T08:20:21;3.75;;;1.50;;
69621;SDS011;56841;55.964;37.674;2023-06-01T08:22:47;5.18;;;1.35;;
69621;SDS011;56841;55.964;37.674;2023-06-01T08:25:14;3.33;;;1.20;;
69621;SDS011;56841;55.964;37.674;2023-06-01T08:27:40;5.50;;;1.75;;
69621;SDS011;56841;55.964;37.674;2023-06-01T08:30:07;3.63;;;1.10;;
69621;SDS011;56841;55.964;37.674;2023-06-01T08:32:33;4.72;;;1.20;;
69621;SDS011;56841;55.964;37.674;2023-06-01T08:34:59;3.30;;;1.25;;
69621;SDS011;56841;55.964;37.674;2023-06-01T08:37:29;3.33;;;1.35;;
69621;SDS011;56841;55.964;37.674;2023-06-01T08:39:55;3.95;;;1.20;;
69621;SDS011;56841;55.964;37.674;2023-06-01T08:42:34;4.15;;;1.77;;
69621;SDS011;56841;55.964;37.674;2023-06-01T08:45:19;2.13;;;1.00;;
69621;SDS011;56841;55.964;37.674;2023-06-01T08:47:45;4.05;;;1.50;;
69621;SDS011;56841;55.964;37.674;2023-06-01T08:50:12;4.40;;;1.25;;
69621;SDS011;56841;55.964;37.674;2023-06-01T08:52:38;3.70;;;1.20;;
69621;SDS011;56841;55.964;37.674;2023-06-01T08:55:06;4.43;;;1.40;;
69621;SDS011;56841;55.964;37.674;2023-06-01T08:57:33;2.30;;;1.10;;
69621;SDS011;56841;55.964;37.674;2023-06-01T08:59:58;3.50;;;1.15;;
69621;SDS011;56841;55.964;37.674;2023-06-01T09:02:25;3.28;;;1.30;;
69621;SDS011;56841;55.964;37.674;2023-06-01T09:04:52;5.03;;;1.50;;
69621;SDS011;56841;55.964;37.674;2023-06-01T09:07:18;3.00;;;1.10;;
69621;SDS011;56841;55.964;37.674;2023-06-01T09:09:45;4.60;;;1.20;;
69621;SDS011;56841;55.964;37.674;2023-06-01T09:12:27;4.60;;;1.13;;
69621;SDS011;56841;55.964;37.674;2023-06-01T09:17:35;4.70;;;1.35;;
69621;SDS011;56841;55.964;37.674;2023-06-01T09:20:01;3.78;;;1.20;;
69621;SDS011;56841;55.964;37.674;2023-06-01T09:22:42;3.08;;;1.25;;
69621;SDS011;56841;55.964;37.674;2023-06-01T09:25:09;2.97;;;1.10;;
69621;SDS011;56841;55.964;37.674;2023-06-01T09:30:07;6.05;;;1.52;;
69621;SDS011;56841;55.964;37.674;2023-06-01T09:32:33;4.53;;;1.27;;
69621;SDS011;56841;55.964;37.674;2023-06-01T09:34:59;8.05;;;1.70;;
69621;SDS011;56841;55.964;37.674;2023-06-01T09:37:25;3.15;;;1.10;;
69621;SDS011;56841;55.964;37.674;2023-06-01T09:39:51;6.45;;;1.38;;
69621;SDS011;56841;55.964;37.674;2023-06-01T09:42:17;5.60;;;1.50;;
69621;SDS011;56841;55.964;37.674;2023-06-01T09:44:42;5.57;;;1.52;;
69621;SDS011;56841;55.964;37.674;2023-06-01T09:47:09;3.97;;;1.30;;
69621;SDS011;56841;55.964;37.674;2023-06-01T09:49:39;6.35;;;1.40;;
69621;SDS011;56841;55.964;37.674;2023-06-01T09:54:33;4.13;;;1.00;;
69621;SDS011;56841;55.964;37.674;2023-06-01T09:57:04;2.47;;;0.90;;
69621;SDS011;56841;55.964;37.674;2023-06-01T09:59:37;2.60;;;1.05;;
69621;SDS011;56841;55.964;37.674;2023-06-01T10:02:12;3.08;;;1.50;;
69621;SDS011;56841;55.964;37.674;2023-06-01T10:04:42;8.05;;;1.25;;
69621;SDS011;56841;55.964;37.674;2023-06-01T10:07:12;3.22;;;1.40;;
69621;SDS011;56841;55.964;37.674;2023-06-01T10:09:40;3.47;;;1.20;;
69621;SDS011;56841;55.964;37.674;2023-06-01T10:12:21;4.75;;;1.20;;
69621;SDS011;56841;55.964;37.674;2023-06-01T10:15:00;2.67;;;1.05;;
69621;SDS011;56841;55.964;37.674;2023-06-01T10:17:30;5.20;;;1.52;;
69621;SDS011;56841;55.964;37.674;2023-06-01T10:19:58;3.53;;;1.25;;
69621;SDS011;56841;55.964;37.674;2023-06-01T10:22:26;3.92;;;1.05;;
69621;SDS011;56841;55.964;37.674;2023-06-01T10:24:56;1.70;;;1.00;;
69621;SDS011;56841;55.964;37.674;2023-06-01T10:27:35;3.92;;;1.25;;
69621;SDS011;56841;55.964;37.674;2023-06-01T10:30:08;3.03;;;1.50;;
69621;SDS011;56841;55.964;37.674;2023-06-01T10:32:40;2.83;;;1.10;;
69621;SDS011;56841;55.964;37.674;2023-06-01T10:35:09;5.28;;;1.20;;
69621;SDS011;56841;55.964;37.674;2023-06-01T10:40:41;3.60;;;1.27;;
69621;SDS011;56841;55.964;37.674;2023-06-01T10:46:01;3.75;;;1.83;;
69621;SDS011;56841;55.964;37.674;2023-06-01T10:48:50;2.70;;;1.35;;
69621;SDS011;56841;55.964;37.674;2023-06-01T10:51:21;7.25;;;1.65;;
69621;SDS011;56841;55.964;37.674;2023-06-01T10:53:51;3.00;;;1.23;;
69621;SDS011;56841;55.964;37.674;2023-06-01T10:56:21;3.25;;;1.38;;
69621;SDS011;56841;55.964;37.674;2023-06-01T11:01:42;3.63;;;1.45;;
69621;SDS011;56841;55.964;37.674;2023-06-01T11:04:09;3.97;;;1.55;;
69621;SDS011;56841;55.964;37.674;2023-06-01T11:06:36;5.13;;;1.33;;
69621;SDS011;56841;55.964;37.674;2023-06-01T11:09:05;3.80;;;1.30;;
69621;SDS011;56841;55.964;37.674;2023-06-01T11:14:16;4.30;;;1.60;;
69621;SDS011;56841;55.964;37.674;2023-06-01T11:16:43;6.30;;;1.70;;
69621;SDS011;56841;55.964;37.674;2023-06-01T11:19:10;3.47;;;1.10;;
69621;SDS011;56841;55.964;37.674;2023-06-01T11:21:43;2.80;;;1.20;;
69621;SDS011;56841;55.964;37.674;2023-06-01T11:24:13;3.17;;;1.20;;
69621;SDS011;56841;55.964;37.674;2023-06-01T11:26:47;3.72;;;1.35;;
69621;SDS011;56841;55.964;37.674;2023-06-01T11:29:18;4.43;;;1.17;;
69621;SDS011;56841;55.964;37.674;2023-06-01T11:31:48;3.70;;;1.50;;
69621;SDS011;56841;55.964;37.674;2023-06-01T11:37:03;2.55;;;1.10;;
69621;SDS011;56841;55.964;37.674;2023-06-01T11:39:29;4.07;;;1.40;;
69621;SDS011;56841;55.964;37.674;2023-06-01T11:42:05;3.33;;;1.23;;
69621;SDS011;56841;55.964;37.674;2023-06-01T11:44:43;4.05;;;1.45;;
69621;SDS011;56841;55.964;37.674;2023-06-01T11:47:11;3.05;;;1.20;;
69621;SDS011;56841;55.964;37.674;2023-06-01T11:49:40;3.42;;;1.20;;
69621;SDS011;56841;55.964;37.674;2023-06-01T11:52:12;4.65;;;1.60;;
69621;SDS011;56841;55.964;37.674;2023-06-01T11:54:38;4.68;;;1.20;;
69621;SDS011;56841;55.964;37.674;2023-06-01T11:57:04;3.13;;;1.33;;
69621;SDS011;56841;55.964;37.674;2023-06-01T11:59:40;3.42;;;1.25;;
69621;SDS011;56841;55.964;37.674;2023-06-01T12:07:43;4.03;;;1.10;;
69621;SDS011;56841;55.964;37.674;2023-06-01T12:10:10;4.13;;;1.20;;
69621;SDS011;56841;55.964;37.674;2023-06-01T12:12:40;5.50;;;1.60;;
69621;SDS011;56841;55.964;37.674;2023-06-01T12:15:07;7.43;;;1.92;;
69621;SDS011;56841;55.964;37.674;2023-06-01T12:17:53;7.97;;;1.80;;
69621;SDS011;56841;55.964;37.674;2023-06-01T12:23:02;2.38;;;1.20;;
69621;SDS011;56841;55.964;37.674;2023-06-01T12:28:50;5.47;;;1.65;;
69621;SDS011;56841;55.964;37.674;2023-06-01T12:31:20;3.63;;;1.20;;
69621;SDS011;56841;55.964;37.674;2023-06-01T12:33:47;6.00;;;1.67;;
69621;SDS011;56841;55.964;37.674;2023-06-01T12:36:30;9.98;;;2.13;;
69621;SDS011;56841;55.964;37.674;2023-06-01T12:38:58;4.95;;;1.50;;
69621;SDS011;56841;55.964;37.674;2023-06-01T12:41:25;2.53;;;1.40;;
69621;SDS011;56841;55.964;37.674;2023-06-01T12:43:50;6.25;;;1.90;;
69621;SDS011;56841;55.964;37.674;2023-06-01T12:46:19;2.80;;;1.50;;
69621;SDS011;56841;55.964;37.674;2023-06-01T12:48:47;4.20;;;1.50;;
69621;SDS011;56841;55.964;37.674;2023-06-01T12:51:13;3.42;;;1.55;;
69621;SDS011;56841;55.964;37.674;2023-06-01T12:53:40;4.53;;;1.40;;
69621;SDS011;56841;55.964;37.674;2023-06-01T12:56:09;10.20;;;2.20;;
69621;SDS011;56841;55.964;37.674;2023-06-01T12:58:36;5.95;;;1.85;;
69621;SDS011;56841;55.964;37.674;2023-06-01T13:01:02;3.50;;;1.30;;
69621;SDS011;56841;55.964;37.674;2023-06-01T13:03:28;6.20;;;1.13;;
69621;SDS011;56841;55.964;37.674;2023-06-01T13:05:54;3.95;;;1.33;;
69621;SDS011;56841;55.964;37.674;2023-06-01T13:08:21;6.90;;;1.42;;
69621;SDS011;56841;55.964;37.674;2023-06-01T13:10:48;5.63;;;1.40;;
69621;SDS011;56841;55.964;37.674;2023-06-01T13:13:14;4.28;;;1.50;;
69621;SDS011;56841;55.964;37.674;2023-06-01T13:15:43;6.60;;;1.40;;
69621;SDS011;56841;55.964;37.674;2023-06-01T13:18:13;6.03;;;1.52;;
69621;SDS011;56841;55.964;37.674;2023-06-01T13:20:40;5.18;;;1.30;;
69621;SDS011;56841;55.964;37.674;2023-06-01T13:23:06;4.63;;;1.42;;
69621;SDS011;56841;55.964;37.674;2023-06-01T13:25:36;6.20;;;1.48;;
69621;SDS011;56841;55.964;37.674;2023-06-01T13:28:10;5.57;;;1.40;;
69621;SDS011;56841;55.964;37.674;2023-06-01T13:30:36;5.90;;;1.10;;
69621;SDS011;56841;55.964;37.674;2023-06-01T13:33:04;5.45;;;1.23;;
69621;SDS011;56841;55.964;37.674;2023-06-01T13:35:30;3.08;;;1.08;;
69621;SDS011;56841;55.964;37.674;2023-06-01T13:37:56;3.10;;;1.23;;
69621;SDS011;56841;55.964;37.674;2023-06-01T13:40:22;3.13;;;1.13;;
69621;SDS011;56841;55.964;37.674;2023-06-01T13:42:51;5.53;;;1.55;;
69621;SDS011;56841;55.964;37.674;2023-06-01T13:45:17;4.53;;;1.27;;
69621;SDS011;56841;55.964;37.674;2023-06-01T13:47:44;6.30;;;1.80;;
69621;SDS011;56841;55.964;37.674;2023-06-01T13:50:10;3.67;;;1.30;;
69621;SDS011;56841;55.964;37.674;2023-06-01T13:52:38;4.32;;;1.50;;
69621;SDS011;56841;55.964;37.674;2023-06-01T13:55:04;2.85;;;1.33;;
69621;SDS011;56841;55.964;37.674;2023-06-01T13:57:32;3.55;;;1.40;;
69621;SDS011;56841;55.964;37.674;2023-06-01T13:59:58;6.20;;;1.42;;
69621;SDS011;56841;55.964;37.674;2023-06-01T14:02:25;4.43;;;1.50;;
69621;SDS011;56841;55.964;37.674;2023-06-01T14:04:50;3.72;;;1.20;;
69621;SDS011;56841;55.964;37.674;2023-06-01T14:07:17;6.15;;;1.10;;
69621;SDS011;56841;55.964;37.674;2023-06-01T14:09:43;2.53;;;1.08;;
69621;SDS011;56841;55.964;37.674;2023-06-01T14:12:10;5.75;;;1.30;;
69621;SDS011;56841;55.964;37.674;2023-06-01T14:14:37;5.95;;;1.35;;
69621;SDS011;56841;55.964;37.674;2023-06-01T14:17:02;5.72;;;1.48;;
69621;SDS011;56841;55.964;37.674;2023-06-01T14:19:28;3.60;;;1.13;;
69621;SDS011;56841;55.964;37.674;2023-06-01T14:21:54;3.05;;;1.38;;
69621;SDS011;56841;55.964;37.674;2023-06-01T14:24:20;6.15;;;1.80;;
69621;SDS011;56841;55.964;37.674;2023-06-01T14:26:46;4.80;;;1.30;;
69621;SDS011;56841;55.964;37.674;2023-06-01T14:29:12;6.05;;;1.35;;
69621;SDS011;56841;55.964;37.674;2023-06-01T14:31:37;4.75;;;1.63;;
69621;SDS011;56841;55.964;37.674;2023-06-01T14:34:03;3.17;;;1.35;;
69621;SDS011;56841;55.964;37.674;2023-06-01T14:36:29;4.55;;;1.38;;
69621;SDS011;56841;55.964;37.674;2023-06-01T14:38:55;4.32;;;1.25;;
69621;SDS011;56841;55.964;37.674;2023-06-01T14:41:21;6.45;;;1.33;;
69621;SDS011;56841;55.964;37.674;2023-06-01T14:43:47;7.25;;;1.52;;
69621;SDS011;56841;55.964;37.674;2023-06-01T14:46:12;5.28;;;1.40;;
69621;SDS011;56841;55.964;37.674;2023-06-01T14:48:38;3.95;;;1.20;;
69621;SDS011;56841;55.964;37.674;2023-06-01T14:51:04;3.58;;;1.20;;
69621;SDS011;56841;55.964;37.674;2023-06-01T14:53:30;5.00;;;1.50;;
69621;SDS011;56841;55.964;37.674;2023-06-01T14:55:55;6.43;;;1.48;;
69621;SDS011;56841;55.964;37.674;2023-06-01T14:58:21;5.07;;;1.40;;
69621;SDS011;56841;55.964;37.674;2023-06-01T15:00:47;4.82;;;1.52;;
69621;SDS011;56841;55.964;37.674;2023-06-01T15:03:13;3.97;;;1.02;;
69621;SDS011;56841;55.964;37.674;2023-06-01T15:05:39;3.53;;;1.30;;
69621;SDS011;56841;55.964;37.674;2023-06-01T15:08:05;5.50;;;1.40;;
69621;SDS011;56841;55.964;37.674;2023-06-01T15:10:32;4.15;;;1.30;;
69621;SDS011;56841;55.964;37.674;2023-06-01T15:12:58;5.03;;;1.55;;
69621;SDS011;56841;55.964;37.674;2023-06-01T15:15:24;4.72;;;1.27;;
69621;SDS011;56841;55.964;37.674;2023-06-01T15:17:49;4.00;;;1.45;;
69621;SDS011;56841;55.964;37.674;2023-06-01T15:20:15;5.65;;;1.60;;
69621;SDS011;56841;55.964;37.674;2023-06-01T15:22:41;4.65;;;1.50;;
69621;SDS011;56841;55.964;37.674;2023-06-01T15:25:07;3.70;;;1.40;;